createdAt,value
2019-04-16T00:02:58.355Z,99857.52
2019-04-16T00:06:12.725Z,99865.64
2019-04-16T00:09:29.123Z,99863.92
2019-04-16T00:12:45.692Z,99866.08
2019-04-16T00:15:50.805Z,99864.96
2019-04-16T00:18:58.137Z,99857.10
2019-04-16T00:22:19.905Z,99861.23
2019-04-16T00:25:25.123Z,99859.95
2019-04-16T00:28:31.318Z,99862.12
2019-04-16T00:31:37.664Z,99856.62
2019-04-16T00:34:44.789Z,99855.86
2019-04-16T00:37:51.755Z,99857.52
2019-04-16T00:41:00.766Z,99856.25
2019-04-16T00:44:03.749Z,99844.10
2019-04-16T00:47:08.928Z,99844.11
2019-04-16T00:50:15.439Z,99843.05
2019-04-16T00:53:20.611Z,99835.09
2019-04-16T00:56:25.804Z,99839.13
2019-04-16T00:59:30.889Z,99842.15
2019-04-16T01:02:36.019Z,99839.17
2019-04-16T01:05:41.170Z,99841.17
2019-04-16T01:08:54.410Z,99847.87
2019-04-16T01:11:53.343Z,99845.59
2019-04-16T01:15:02.597Z,99854.48
2019-04-16T01:18:09.027Z,99852.48
2019-04-16T01:21:14.979Z,99858.46
2019-04-16T01:24:21.146Z,99860.36
2019-04-16T01:27:38.858Z,99860.88
2019-04-16T01:31:01.095Z,99857.75
2019-04-16T01:34:24.141Z,99858.19
2019-04-16T01:37:57.712Z,99855.41
2019-04-16T01:41:08.823Z,99859.76
2019-04-16T01:44:14.056Z,99858.45
2019-04-16T01:47:19.207Z,99865.77
2019-04-16T01:50:24.404Z,99859.77
2019-04-16T01:53:29.576Z,99865.75
2019-04-16T01:56:34.669Z,99864.12
2019-04-16T01:59:39.790Z,99866.28
2019-04-16T02:02:46.382Z,99861.45
2019-04-16T02:05:54.601Z,99863.11
2019-04-16T02:09:01.750Z,99864.13
2019-04-16T02:12:07.232Z,99864.94
2019-04-16T02:15:12.408Z,99864.75
2019-04-16T02:18:17.580Z,99859.11
2019-04-16T02:21:23.749Z,99857.90
2019-04-16T02:24:28.813Z,99859.88
2019-04-16T02:27:34.028Z,99857.20
2019-04-16T02:30:39.869Z,99856.72
2019-04-16T02:33:45.150Z,99850.92
2019-04-16T02:36:50.341Z,99850.44
2019-04-16T02:39:57.976Z,99847.10
2019-04-16T02:43:06.510Z,99841.92
2019-04-16T02:46:09.921Z,99851.23
2019-04-16T02:49:15.045Z,99853.38
2019-04-16T02:52:39.113Z,99862.98
2019-04-16T02:56:07.725Z,99851.53
2019-04-16T02:59:16.043Z,99850.16
2019-04-16T03:02:38.995Z,99863.78
2019-04-16T03:05:47.071Z,99844.83
2019-04-16T03:08:52.289Z,99845.34
2019-04-16T03:11:57.467Z,99842.88
2019-04-16T03:15:02.883Z,99851.96
2019-04-16T03:18:08.327Z,99839.36
2019-04-16T03:21:13.507Z,99849.80
2019-04-16T03:24:18.763Z,99843.30
2019-04-16T03:27:23.837Z,99836.00
2019-04-16T03:30:28.955Z,99839.28
2019-04-16T03:33:34.162Z,99836.30
2019-04-16T03:36:39.305Z,99836.95
2019-04-16T03:39:44.989Z,99833.96
2019-04-16T03:43:10.581Z,99828.17
2019-04-16T03:46:15.723Z,99837.95
2019-04-16T03:49:20.861Z,99840.28
2019-04-16T03:52:25.960Z,99836.91
2019-04-16T03:55:31.249Z,99835.14
2019-04-16T03:58:38.609Z,99835.42
2019-04-16T04:01:45.827Z,99836.70
2019-04-16T04:04:50.120Z,99838.94
2019-04-16T04:07:55.707Z,99837.80
2019-04-16T04:11:00.923Z,99837.91
2019-04-16T04:14:06.040Z,99834.81
2019-04-16T04:17:12.542Z,99836.43
2019-04-16T04:20:19.150Z,99837.72
2019-04-16T04:23:25.534Z,99838.99
2019-04-16T04:26:31.487Z,99832.67
2019-04-16T04:29:36.689Z,99840.28
2019-04-16T04:32:41.865Z,99836.48
2019-04-16T04:35:47.031Z,99845.08
2019-04-16T04:38:52.150Z,99842.98
2019-04-16T04:41:57.364Z,99837.52
2019-04-16T04:45:08.400Z,99840.05
2019-04-16T04:48:11.959Z,99844.69
2019-04-16T04:51:17.439Z,99842.70
2019-04-16T04:54:23.493Z,99845.82
2019-04-16T04:57:31.161Z,99844.53
2019-04-16T05:00:37.438Z,99836.79
2019-04-16T05:04:05.210Z,99840.70
2019-04-16T05:07:10.499Z,99837.72
2019-04-16T05:10:15.770Z,99842.06
2019-04-16T05:13:23.918Z,99852.48
2019-04-16T05:16:27.934Z,99852.97
2019-04-16T05:19:33.153Z,99854.97
2019-04-16T05:22:38.257Z,99859.52
2019-04-16T05:25:43.514Z,99858.49
2019-04-16T05:28:48.720Z,99868.28
2019-04-16T05:31:54.495Z,99858.60
2019-04-16T05:35:00.865Z,99858.45
2019-04-16T05:38:06.032Z,99858.09
2019-04-16T05:41:13.504Z,99863.39
2019-04-16T05:44:18.068Z,99861.89
2019-04-16T05:47:23.255Z,99864.59
2019-04-16T05:50:29.829Z,99866.16
2019-04-16T05:53:37.373Z,99866.91
2019-04-16T05:56:47.562Z,99870.17
2019-04-16T05:59:52.787Z,99865.32
2019-04-16T06:02:57.925Z,99863.87
2019-04-16T06:06:03.021Z,99875.02
2019-04-16T06:09:12.263Z,99871.26
2019-04-16T06:12:16.686Z,99863.75
2019-04-16T06:15:40.843Z,99872.61
2019-04-16T06:18:55.293Z,99872.08
2019-04-16T06:22:31.831Z,99877.02
2019-04-16T06:25:47.531Z,99876.59
2019-04-16T06:28:59.978Z,99878.72
2019-04-16T06:32:35.517Z,99885.84
2019-04-16T06:36:05.525Z,99878.37
2019-04-16T06:39:15.741Z,99871.34
2019-04-16T06:42:25.352Z,99870.19
2019-04-16T06:45:41.418Z,99865.69
2019-04-16T06:49:17.634Z,99872.00
2019-04-16T06:52:59.185Z,99864.09
2019-04-16T06:56:23.323Z,99857.80
2019-04-16T06:59:34.419Z,99859.22
2019-04-16T07:03:01.670Z,99859.16
2019-04-16T07:06:21.147Z,99857.92
2019-04-16T07:09:41.488Z,99853.83
2019-04-16T07:12:39.303Z,99858.38
2019-04-16T07:15:45.591Z,99853.45
2019-04-16T07:18:50.850Z,99858.75
2019-04-16T07:21:55.985Z,99854.45
2019-04-16T07:25:04.255Z,99853.59
2019-04-16T07:28:15.325Z,99852.70
2019-04-16T07:31:33.556Z,99846.44
2019-04-16T07:35:01.469Z,99852.14
2019-04-16T07:38:35.443Z,99851.69
2019-04-16T07:42:08.558Z,99850.05
2019-04-16T07:45:26.909Z,99841.06
2019-04-16T07:48:46.655Z,99844.69
2019-04-16T07:52:13.804Z,99841.59
2019-04-16T07:55:30.058Z,99841.42
2019-04-16T07:58:35.236Z,99837.12
2019-04-16T08:01:40.456Z,99834.61
2019-04-16T08:04:45.643Z,99827.53
2019-04-16T08:07:52.890Z,99825.29
2019-04-16T08:10:58.316Z,99825.63
2019-04-16T08:14:08.638Z,99821.39
2019-04-16T08:17:10.419Z,99818.47
2019-04-16T08:20:20.080Z,99817.64
2019-04-16T08:23:43.737Z,99812.79
2019-04-16T08:26:48.904Z,99812.82
2019-04-16T08:29:54.152Z,99808.66
2019-04-16T08:32:59.312Z,99807.70
2019-04-16T08:36:04.475Z,99807.77
2019-04-16T08:39:13.429Z,99799.23
2019-04-16T08:42:18.576Z,99800.06
2019-04-16T08:45:23.739Z,99803.87
2019-04-16T08:48:28.975Z,99806.76
2019-04-16T08:51:37.047Z,99802.64
2019-04-16T08:54:41.113Z,99805.83
2019-04-16T08:57:47.024Z,99797.83
2019-04-16T09:00:52.537Z,99802.25
2019-04-16T09:04:02.647Z,99796.59
2019-04-16T09:07:12.080Z,99790.88
2019-04-16T09:10:19.098Z,99783.62
2019-04-16T09:13:25.652Z,99786.35
2019-04-16T09:16:32.578Z,99783.83
2019-04-16T09:19:39.241Z,99780.92
2019-04-16T09:22:49.098Z,99774.90
2019-04-16T09:26:12.397Z,99778.16
2019-04-16T09:29:23.940Z,99775.69
2019-04-16T09:32:47.917Z,99776.47
2019-04-16T09:36:18.758Z,99781.69
2019-04-16T09:39:39.010Z,99772.87
2019-04-16T09:42:44.173Z,99769.80
2019-04-16T09:45:49.386Z,99765.41
2019-04-16T09:48:54.594Z,99767.63
2019-04-16T09:51:59.838Z,99762.61
2019-04-16T09:55:05.132Z,99762.81
2019-04-16T09:58:17.016Z,99762.75
2019-04-16T10:01:24.051Z,99752.58
2019-04-16T10:04:29.203Z,99756.30
2019-04-16T10:07:34.354Z,99755.38
2019-04-16T10:10:39.476Z,99749.76
2019-04-16T10:13:44.651Z,99750.13
2019-04-16T10:16:49.807Z,99754.40
2019-04-16T10:19:55.030Z,99754.77
2019-04-16T10:23:01.824Z,99753.97
2019-04-16T10:26:06.999Z,99754.02
2019-04-16T10:29:15.535Z,99741.00
2019-04-16T10:32:20.749Z,99725.52
2019-04-16T10:35:26.481Z,99736.77
2019-04-16T10:38:36.848Z,99724.44
2019-04-16T10:41:56.399Z,99722.91
2019-04-16T10:45:09.367Z,99732.28
2019-04-16T10:48:33.548Z,99733.80
2019-04-16T10:52:06.553Z,99723.80
2019-04-16T10:55:27.300Z,99720.56
2019-04-16T10:58:55.947Z,99722.01
2019-04-16T11:02:38.592Z,99712.86
2019-04-16T11:05:56.773Z,99716.20
2019-04-16T11:09:00.681Z,99697.87
2019-04-16T11:12:07.779Z,99701.44
2019-04-16T11:15:16.038Z,99690.09
2019-04-16T11:18:21.257Z,99696.92
2019-04-16T11:21:27.535Z,99682.73
2019-04-16T11:24:32.733Z,99688.80
2019-04-16T11:27:37.851Z,99682.17
2019-04-16T11:30:48.702Z,99682.16
2019-04-16T11:33:53.547Z,99683.80
2019-04-16T11:36:58.862Z,99689.79
2019-04-16T11:40:05.274Z,99694.16
2019-04-16T11:43:10.466Z,99684.11
2019-04-16T11:46:15.819Z,99671.86
2019-04-16T11:49:21.836Z,99676.16
2019-04-16T11:52:27.135Z,99683.80
2019-04-16T11:55:32.386Z,99681.13
2019-04-16T12:04:02.675Z,99661.17
2019-04-16T12:07:31.580Z,99671.82
2019-04-16T12:10:41.207Z,99666.91
2019-04-16T12:14:09.962Z,99668.53
2019-04-16T12:17:19.429Z,99670.19
2019-04-16T12:20:44.632Z,99664.97
2019-04-16T12:24:18.428Z,99666.85
2019-04-16T12:27:43.510Z,99671.67
2019-04-16T12:31:01.933Z,99666.89
2019-04-16T12:34:13.942Z,99670.38
2019-04-16T12:37:37.651Z,99672.63
2019-04-16T12:41:01.771Z,99669.90
2019-04-16T12:44:26.075Z,99680.45
2019-04-16T12:47:35.517Z,99662.19
2019-04-16T12:51:02.496Z,99666.64
2019-04-16T12:54:26.260Z,99670.38
2019-04-16T12:57:49.516Z,99671.48
2019-04-16T13:01:03.074Z,99668.48
2019-04-16T13:04:14.211Z,99672.12
2019-04-16T13:07:34.166Z,99663.27
2019-04-16T13:11:13.216Z,99654.56
2019-04-16T13:14:37.817Z,99654.70
2019-04-16T13:18:01.009Z,99656.20
2019-04-16T13:21:34.591Z,99651.06
2019-04-16T13:24:43.762Z,99656.06
2019-04-16T13:27:50.889Z,99662.08
2019-04-16T13:30:56.155Z,99654.09
2019-04-16T13:34:01.286Z,99656.97
2019-04-16T13:37:07.559Z,99657.03
2019-04-16T13:40:14.946Z,99657.04
2019-04-16T13:43:23.185Z,99655.03
2019-04-16T13:46:29.481Z,99652.58
2019-04-16T13:49:46.807Z,99644.70
2019-04-16T13:52:56.050Z,99646.12
2019-04-16T13:56:26.517Z,99645.98
2019-04-16T13:59:50.715Z,99638.95
2019-04-16T14:02:59.146Z,99631.98
2019-04-16T14:06:09.350Z,99637.51
2019-04-16T14:09:11.206Z,99639.69
2019-04-16T14:12:16.650Z,99638.84
2019-04-16T14:15:31.627Z,99627.36
2019-04-16T14:18:32.567Z,99623.34
2019-04-16T14:21:37.240Z,99622.53
2019-04-16T14:24:42.433Z,99623.94
2019-04-16T14:27:47.589Z,99622.98
2019-04-16T14:30:52.741Z,99619.34
2019-04-16T14:34:03.043Z,99628.47
2019-04-16T14:37:08.194Z,99634.09
2019-04-16T14:40:17.280Z,99627.52
2019-04-16T14:43:29.370Z,99621.67
2019-04-16T14:46:33.999Z,99623.92
2019-04-16T14:49:39.154Z,99620.63
2019-04-16T14:52:44.514Z,99623.36
2019-04-16T14:56:00.525Z,99623.20
2019-04-16T14:59:30.399Z,99630.04
2019-04-16T15:02:42.028Z,99626.02
2019-04-16T15:06:17.085Z,99624.91
2019-04-16T15:09:32.863Z,99625.34
2019-04-16T15:12:55.542Z,99621.44
2019-04-16T15:16:22.166Z,99618.50
2019-04-16T15:19:28.859Z,99625.19
2019-04-16T15:22:45.926Z,99623.02
2019-04-16T15:26:09.185Z,99623.03
2019-04-16T15:29:20.869Z,99617.83
2019-04-16T15:32:46.166Z,99616.91
2019-04-16T15:36:01.972Z,99617.49
2019-04-16T15:39:14.378Z,99619.70
2019-04-16T15:42:48.980Z,99620.09
2019-04-16T15:46:26.518Z,99619.13
2019-04-16T15:49:40.054Z,99623.59
2019-04-16T15:52:51.868Z,99618.02
2019-04-16T15:56:28.066Z,99623.48
2019-04-16T15:59:56.185Z,99620.70
2019-04-16T16:03:19.370Z,99631.33
2019-04-16T16:06:25.962Z,99629.59
2019-04-16T16:09:50.107Z,99625.02
2019-04-16T16:12:55.454Z,99625.95
2019-04-16T16:16:00.587Z,99632.41
2019-04-16T16:19:10.950Z,99632.12
2019-04-16T16:22:12.688Z,99632.46
2019-04-16T16:25:18.149Z,99631.70
2019-04-16T16:28:23.401Z,99636.76
2019-04-16T16:31:33.447Z,99638.43
2019-04-16T16:34:35.511Z,99643.61
2019-04-16T16:37:40.677Z,99642.01
2019-04-16T16:40:49.459Z,99643.66
2019-04-16T16:43:52.796Z,99646.16
2019-04-16T16:47:06.958Z,99636.59
2019-04-16T16:50:17.341Z,99630.28
2019-04-16T16:53:31.368Z,99635.78
2019-04-16T16:56:47.145Z,99641.78
2019-04-16T17:00:29.584Z,99642.30
2019-04-16T17:04:11.918Z,99642.55
2019-04-16T17:07:18.463Z,99652.11
2019-04-16T17:10:23.589Z,99648.22
2019-04-16T17:13:28.781Z,99648.59
2019-04-16T17:16:33.967Z,99655.67
2019-04-16T17:19:39.134Z,99654.77
2019-04-16T17:22:44.309Z,99665.47
2019-04-16T17:25:51.217Z,99666.14
2019-04-16T17:28:56.434Z,99664.44
2019-04-16T17:32:01.562Z,99669.68
2019-04-16T17:35:07.877Z,99667.72
2019-04-16T17:38:13.767Z,99675.19
2019-04-16T17:41:25.811Z,99680.98
2019-04-16T17:44:49.944Z,99681.44
2019-04-16T17:48:09.872Z,99686.57
2019-04-16T17:51:34.039Z,99688.94
2019-04-16T17:55:02.001Z,99692.19
2019-04-16T17:58:10.773Z,99694.98
2019-04-16T18:01:33.203Z,99693.38
2019-04-16T18:04:56.461Z,99700.18
2019-04-16T18:08:20.794Z,99710.36
2019-04-16T18:11:45.443Z,99707.14
2019-04-16T18:15:28.078Z,99716.07
2019-04-16T18:18:49.882Z,99717.84
2019-04-16T18:22:17.295Z,99726.58
2019-04-16T18:25:54.919Z,99723.11
2019-04-16T18:29:04.470Z,99729.73
2019-04-16T18:32:33.716Z,99727.48
2019-04-16T18:35:44.615Z,99737.69
2019-04-16T18:39:11.885Z,99735.75
2019-04-16T18:42:35.681Z,99740.53
2019-04-16T18:45:59.861Z,99741.95
2019-04-16T18:49:10.847Z,99751.84
2019-04-16T18:52:16.147Z,99761.72
2019-04-16T18:55:21.457Z,99766.44
2019-04-16T18:58:26.672Z,99767.95
2019-04-16T19:01:33.405Z,99775.34
2019-04-16T19:04:38.691Z,99778.80
2019-04-16T19:07:43.970Z,99776.29
2019-04-16T19:10:50.370Z,99789.25
2019-04-16T19:13:55.677Z,99794.87
2019-04-16T19:17:00.855Z,99790.22
2019-04-16T19:20:06.118Z,99802.41
2019-04-16T19:23:11.371Z,99801.51
2019-04-16T19:26:16.661Z,99797.16
2019-04-16T19:29:21.830Z,99801.64
2019-04-16T19:32:27.784Z,99798.31
2019-04-16T19:35:33.955Z,99811.78
2019-04-16T19:38:40.502Z,99808.63
2019-04-16T19:41:45.892Z,99805.73
2019-04-16T19:44:51.084Z,99810.86
2019-04-16T19:48:00.290Z,99807.02
2019-04-16T19:51:03.060Z,99814.55
2019-04-16T19:54:08.226Z,99816.60
2019-04-16T19:57:15.587Z,99817.31
2019-04-16T20:00:22.944Z,99818.34
2019-04-16T20:03:30.462Z,99823.34
2019-04-16T20:06:34.494Z,99825.75
2019-04-16T20:09:39.823Z,99828.47
2019-04-16T20:12:45.055Z,99828.61
2019-04-16T20:15:51.430Z,99829.95
2019-04-16T20:18:56.644Z,99829.03
2019-04-16T20:22:01.926Z,99829.83
2019-04-16T20:25:07.306Z,99832.86
2019-04-16T20:28:15.398Z,99834.31
2019-04-16T20:31:19.468Z,99842.01
2019-04-16T20:34:24.830Z,99840.44
2019-04-16T20:37:29.973Z,99848.66
2019-04-16T20:40:35.486Z,99848.02
2019-04-16T20:43:40.811Z,99856.18
2019-04-16T20:46:45.986Z,99860.70
2019-04-16T20:49:51.316Z,99862.48
2019-04-16T20:52:56.637Z,99860.31
2019-04-16T20:56:01.945Z,99859.46
2019-04-16T20:59:08.187Z,99868.11
2019-04-16T21:02:13.446Z,99870.28
2019-04-16T21:05:22.393Z,99870.09
2019-04-16T21:08:25.686Z,99873.94
2019-04-16T21:11:31.794Z,99868.27
2019-04-16T21:14:36.981Z,99875.02
2019-04-16T21:17:42.190Z,99878.63
2019-04-16T21:20:50.836Z,99874.02
2019-04-16T21:23:54.970Z,99875.99
2019-04-16T21:27:00.286Z,99879.80
2019-04-16T21:30:12.312Z,99887.33
2019-04-16T21:33:21.256Z,99882.81
2019-04-16T21:36:39.385Z,99889.51
2019-04-16T21:39:54.068Z,99890.95
2019-04-16T21:42:59.323Z,99903.11
2019-04-16T21:46:04.530Z,99910.89
2019-04-16T21:49:09.674Z,99910.77
2019-04-16T21:52:14.807Z,99919.30
2019-04-16T21:55:19.987Z,99908.38
2019-04-16T21:58:25.310Z,99907.78
2019-04-16T22:01:41.359Z,99912.11
2019-04-16T22:04:46.568Z,99912.59
2019-04-16T22:07:53.692Z,99919.46
2019-04-16T22:10:58.863Z,99920.69
2019-04-16T22:14:04.732Z,99929.24
2019-04-16T22:17:10.018Z,99924.41
2019-04-16T22:20:15.128Z,99923.92
2019-04-16T22:23:20.326Z,99924.56
2019-04-16T22:26:27.573Z,99929.08
2019-04-16T22:29:32.834Z,99932.90
2019-04-16T22:32:37.937Z,99936.28
2019-04-16T22:35:43.068Z,99940.03
2019-04-16T22:38:52.064Z,99938.19
2019-04-16T22:42:06.371Z,99940.08
2019-04-16T22:45:22.656Z,99944.16
2019-04-16T22:48:27.881Z,99941.72
2019-04-16T22:51:33.173Z,99952.11
2019-04-16T22:54:38.377Z,99951.19
2019-04-16T22:57:43.626Z,99955.66
2019-04-16T23:00:48.824Z,99964.94
2019-04-16T23:03:54.547Z,99963.34
2019-04-16T23:06:59.701Z,99965.11
2019-04-16T23:10:05.003Z,99968.89
2019-04-16T23:13:10.190Z,99974.03
2019-04-16T23:16:15.561Z,99981.34
2019-04-16T23:19:21.299Z,99976.91
2019-04-16T23:22:26.640Z,99979.91
2019-04-16T23:25:31.732Z,99979.83
2019-04-16T23:28:39.710Z,99971.27
2019-04-16T23:31:43.750Z,99979.52
2019-04-16T23:34:48.928Z,99981.75
2019-04-16T23:37:58.062Z,99982.95
2019-04-16T23:41:01.004Z,99986.65
2019-04-16T23:44:31.264Z,99984.56
2019-04-16T23:48:01.551Z,99988.09
2019-04-16T23:51:10.685Z,99984.66
2019-04-16T23:54:23.290Z,99985.09
2019-04-16T23:57:36.871Z,99972.32
